Time;durP1;ratioP1;P1;durP2;ratioP2;P2;SDS_P1;SDS_P2;PMS_P1;PMS_P2;Temp;Humidity;BMP_temperature;BMP_pressure;BME280_temperature;BME280_humidity;BME280_pressure;Samples;Min_cycle;Max_cycle;Signal;HPM_P1;HPM_P2
2021/03/31 00:01:46;;;;;;;7.07;4.55;;;13.10;91.30;;;;;;4959145;28;20187;-84
2021/03/31 00:04:12;;;;;;;7.97;4.43;;;13.10;91.30;;;;;;4958201;28;20698;-84
2021/03/31 00:06:39;;;;;;;8.65;5.25;;;13.10;91.20;;;;;;4973706;28;20192;-84
2021/03/31 00:09:06;;;;;;;5.85;4.20;;;13.20;91.10;;;;;;4968118;28;20234;-83
2021/03/31 00:11:32;;;;;;;6.55;4.15;;;13.20;91.00;;;;;;4958010;28;20187;-83
2021/03/31 00:13:59;;;;;;;7.15;5.00;;;13.30;91.00;;;;;;4960898;28;20192;-83
2021/03/31 00:16:25;;;;;;;10.93;4.35;;;13.40;90.70;;;;;;4957973;29;20223;-83
2021/03/31 00:18:51;;;;;;;7.80;4.28;;;13.60;90.70;;;;;;4964884;28;20251;-83
2021/03/31 00:21:18;;;;;;;8.48;5.57;;;13.60;90.90;;;;;;4963896;28;20188;-84
2021/03/31 00:23:45;;;;;;;6.55;4.50;;;13.60;90.40;;;;;;4989785;28;20175;-82
2021/03/31 00:26:11;;;;;;;6.22;4.43;;;13.70;90.40;;;;;;4998080;28;20198;-83
2021/03/31 00:28:37;;;;;;;9.38;5.22;;;13.70;90.30;;;;;;4984891;28;20198;-83
2021/03/31 00:31:04;;;;;;;8.80;4.80;;;13.60;90.40;;;;;;4989987;28;20187;-83
2021/03/31 00:33:30;;;;;;;8.77;4.28;;;13.60;90.20;;;;;;4981834;28;20191;-83
2021/03/31 00:35:57;;;;;;;7.03;4.30;;;13.50;90.10;;;;;;4977556;28;20229;-83
2021/03/31 00:38:24;;;;;;;7.65;4.53;;;13.50;90.20;;;;;;4978097;28;20196;-83
2021/03/31 00:40:53;;;;;;;7.80;4.18;;;13.50;90.20;;;;;;4978279;28;20191;-83
2021/03/31 00:43:19;;;;;;;8.98;5.35;;;13.50;90.00;;;;;;4978355;28;20187;-83
2021/03/31 00:45:45;;;;;;;9.48;5.35;;;13.40;90.10;;;;;;4990019;28;20281;-82
2021/03/31 00:48:13;;;;;;;10.60;5.40;;;13.30;89.90;;;;;;4997140;28;20210;-82
2021/03/31 00:50:41;;;;;;;9.50;5.03;;;13.20;89.90;;;;;;4976152;28;20188;-82
2021/03/31 00:53:07;;;;;;;9.90;4.90;;;13.20;89.70;;;;;;4959002;28;20195;-83
2021/03/31 00:55:34;;;;;;;9.60;5.35;;;13.20;90.00;;;;;;4982085;28;20280;-82
2021/03/31 00:58:01;;;;;;;5.45;3.30;;;13.20;90.00;;;;;;4972284;28;20288;-83
2021/03/31 01:00:27;;;;;;;8.00;4.03;;;13.10;90.00;;;;;;4971868;28;20298;-83
2021/03/31 01:02:54;;;;;;;7.63;4.93;;;13.10;90.10;;;;;;4975608;28;20191;-83
2021/03/31 01:05:23;;;;;;;9.48;4.40;;;13.10;90.00;;;;;;4979815;28;20201;-83
2021/03/31 01:07:50;;;;;;;5.97;3.90;;;13.20;90.10;;;;;;4966500;28;20184;-83
2021/03/31 01:10:19;;;;;;;8.55;4.35;;;13.20;89.90;;;;;;4959693;28;20192;-83
2021/03/31 01:13:19;;;;;;;7.32;4.25;;;13.30;89.60;;;;;;4960553;28;20278;-83
2021/03/31 01:15:53;;;;;;;7.57;4.70;;;13.20;89.60;;;;;;4959673;28;20222;-83
2021/03/31 01:18:29;;;;;;;8.75;4.32;;;13.20;89.50;;;;;;4964875;28;20197;-83
2021/03/31 01:21:38;;;;;;;6.78;4.47;;;13.20;89.70;;;;;;4976250;28;20546;-83
2021/03/31 01:24:44;;;;;;;15.00;5.10;;;13.10;89.30;;;;;;4979166;28;20187;-83
2021/03/31 01:27:14;;;;;;;6.95;4.35;;;13.00;89.60;;;;;;4977329;28;20187;-83
2021/03/31 01:30:05;;;;;;;9.77;4.22;;;13.20;89.20;;;;;;4978250;28;20191;-83
2021/03/31 01:32:46;;;;;;;7.22;3.70;;;13.20;88.90;;;;;;4977851;28;20242;-83
2021/03/31 01:35:16;;;;;;;8.98;4.45;;;13.10;88.80;;;;;;4977647;28;20218;-84
2021/03/31 01:37:48;;;;;;;5.72;3.78;;;13.20;88.90;;;;;;4977606;28;20179;-83
2021/03/31 01:40:19;;;;;;;8.00;3.55;;;13.10;88.80;;;;;;4976439;28;20197;-84
2021/03/31 01:42:49;;;;;;;6.80;4.38;;;13.10;88.80;;;;;;4976359;28;20195;-83
2021/03/31 01:45:19;;;;;;;15.70;5.05;;;13.00;89.20;;;;;;4976667;28;20191;-84
2021/03/31 01:47:47;;;;;;;7.63;4.13;;;12.90;88.60;;;;;;4977119;28;20198;-83
2021/03/31 01:50:15;;;;;;;7.53;3.90;;;12.80;88.90;;;;;;4975832;28;20194;-84
2021/03/31 01:52:43;;;;;;;6.10;4.47;;;12.70;88.70;;;;;;4970134;28;20191;-83
2021/03/31 01:55:14;;;;;;;6.90;4.32;;;12.70;88.80;;;;;;4957856;28;20226;-84
2021/03/31 01:57:42;;;;;;;7.80;4.57;;;12.90;88.50;;;;;;4970861;28;20239;-85
2021/03/31 02:00:10;;;;;;;7.38;4.30;;;12.90;88.40;;;;;;4975675;28;20191;-84
2021/03/31 02:02:37;;;;;;;5.95;4.70;;;12.90;88.00;;;;;;4969272;28;20550;-84
2021/03/31 02:05:05;;;;;;;6.15;4.95;;;12.90;87.40;;;;;;4975034;28;20187;-84
2021/03/31 02:07:32;;;;;;;6.60;4.50;;;13.00;88.90;;;;;;4970873;28;20273;-83
2021/03/31 02:10:00;;;;;;;5.57;4.15;;;13.10;87.60;;;;;;4974806;28;20197;-83
2021/03/31 02:12:27;;;;;;;12.32;5.95;;;13.20;87.20;;;;;;4974118;28;20192;-83
2021/03/31 02:14:55;;;;;;;7.28;4.80;;;13.40;86.90;;;;;;4975081;28;20188;-84
2021/03/31 02:17:24;;;;;;;11.25;5.65;;;13.60;86.50;;;;;;4972875;28;20721;-83
2021/03/31 02:19:52;;;;;;;9.15;4.88;;;13.60;86.50;;;;;;4978035;28;20188;-83
2021/03/31 02:22:22;;;;;;;7.38;5.13;;;13.60;86.70;;;;;;4977665;28;20656;-83
2021/03/31 02:24:50;;;;;;;9.70;4.30;;;13.60;86.10;;;;;;4978106;28;20190;-84
2021/03/31 02:27:17;;;;;;;9.88;5.45;;;13.60;86.40;;;;;;4977929;28;20195;-84
2021/03/31 02:29:46;;;;;;;7.45;4.32;;;13.50;86.30;;;;;;4979920;28;20198;-84
2021/03/31 02:32:14;;;;;;;8.60;5.22;;;13.50;86.30;;;;;;4962743;28;20263;-84
2021/03/31 02:34:42;;;;;;;7.75;4.63;;;13.60;86.20;;;;;;4955699;28;20191;-84
2021/03/31 02:37:09;;;;;;;8.60;5.13;;;13.70;86.30;;;;;;4968222;28;20210;-84
2021/03/31 02:39:37;;;;;;;7.00;4.90;;;13.70;86.20;;;;;;4974973;28;20269;-83
2021/03/31 02:42:08;;;;;;;7.65;4.45;;;13.70;85.90;;;;;;4973489;28;20208;-83
2021/03/31 02:44:39;;;;;;;16.73;5.60;;;13.70;85.80;;;;;;4976126;28;20210;-83
2021/03/31 02:47:06;;;;;;;8.73;4.70;;;13.70;86.00;;;;;;4976018;28;20199;-83
2021/03/31 02:49:34;;;;;;;13.02;4.93;;;13.60;85.70;;;;;;4974405;28;20199;-84
2021/03/31 02:52:01;;;;;;;8.63;5.22;;;13.60;85.90;;;;;;4975975;28;20202;-84
2021/03/31 02:54:29;;;;;;;8.00;4.55;;;13.70;86.00;;;;;;4979575;28;20189;-84
2021/03/31 02:56:56;;;;;;;10.38;5.10;;;13.70;85.50;;;;;;4980590;28;20235;-83
2021/03/31 02:59:24;;;;;;;6.95;4.50;;;13.70;85.70;;;;;;4979070;28;20188;-84
2021/03/31 03:01:50;;;;;;;5.78;4.55;;;13.60;85.60;;;;;;4981004;28;20194;-84
2021/03/31 03:04:16;;;;;;;9.60;5.68;;;13.60;85.70;;;;;;4979324;28;20193;-84
2021/03/31 03:06:43;;;;;;;6.88;4.45;;;13.60;85.40;;;;;;4981035;28;20653;-84
2021/03/31 03:09:09;;;;;;;5.95;4.28;;;13.60;85.40;;;;;;4979830;28;20180;-84
2021/03/31 03:11:36;;;;;;;9.27;4.97;;;13.70;85.30;;;;;;4981318;28;20188;-84
2021/03/31 03:14:06;;;;;;;8.82;5.72;;;13.70;85.30;;;;;;4979443;28;20194;-84
2021/03/31 03:16:33;;;;;;;8.30;5.03;;;13.70;85.10;;;;;;4974957;28;20211;-84
2021/03/31 03:19:00;;;;;;;8.13;4.07;;;13.70;85.10;;;;;;4979279;28;20525;-84
2021/03/31 03:21:27;;;;;;;12.05;5.90;;;13.80;85.30;;;;;;4961660;28;20187;-84
2021/03/31 03:23:54;;;;;;;9.77;5.65;;;13.80;84.90;;;;;;4961554;28;20199;-84
2021/03/31 03:26:21;;;;;;;6.38;4.68;;;13.80;84.80;;;;;;4980229;28;20187;-84
2021/03/31 03:28:48;;;;;;;12.23;4.90;;;13.70;85.00;;;;;;4980855;28;20190;-83
2021/03/31 03:31:15;;;;;;;7.53;5.13;;;13.70;84.70;;;;;;4981384;28;20526;-83
2021/03/31 03:33:43;;;;;;;9.23;4.97;;;13.60;84.80;;;;;;4984145;28;20663;-83
2021/03/31 03:36:12;;;;;;;7.53;4.55;;;13.60;84.70;;;;;;4979967;28;20319;-84
2021/03/31 03:38:39;;;;;;;8.85;5.10;;;13.50;84.90;;;;;;4976991;28;20182;-83
2021/03/31 03:41:06;;;;;;;7.63;4.82;;;13.50;84.80;;;;;;4979607;28;20201;-83
2021/03/31 03:43:32;;;;;;;9.85;4.57;;;13.40;85.20;;;;;;4979621;28;20188;-83
2021/03/31 03:45:59;;;;;;;9.63;4.75;;;13.40;84.90;;;;;;4980712;28;20201;-83
2021/03/31 03:48:26;;;;;;;8.57;5.78;;;13.50;84.90;;;;;;4971454;28;20206;-84
2021/03/31 03:50:53;;;;;;;8.18;3.83;;;13.50;85.50;;;;;;4979626;28;20273;-83
2021/03/31 03:53:20;;;;;;;10.15;4.75;;;13.50;84.30;;;;;;4971716;28;20193;-83
2021/03/31 03:55:46;;;;;;;8.85;5.60;;;13.50;84.60;;;;;;4968680;28;20219;-84
2021/03/31 03:58:13;;;;;;;9.07;4.90;;;13.40;84.70;;;;;;4983881;28;20192;-83
2021/03/31 04:00:40;;;;;;;7.10;4.72;;;13.40;84.50;;;;;;4987362;28;20171;-83
2021/03/31 04:03:06;;;;;;;9.35;5.18;;;13.40;84.50;;;;;;5003404;28;20230;-83
2021/03/31 04:05:32;;;;;;;6.10;4.10;;;13.40;84.40;;;;;;4988989;28;20195;-83
2021/03/31 04:07:59;;;;;;;7.50;4.80;;;13.40;84.50;;;;;;4973940;28;20188;-83
2021/03/31 04:10:27;;;;;;;7.45;3.95;;;13.50;85.10;;;;;;4972297;28;20214;-84
2021/03/31 04:12:55;;;;;;;8.25;4.28;;;13.40;84.90;;;;;;4963546;28;20291;-83
2021/03/31 04:15:22;;;;;;;7.03;4.68;;;13.40;84.70;;;;;;4985651;28;20191;-83
2021/03/31 04:17:50;;;;;;;7.28;5.25;;;13.50;84.70;;;;;;4982721;28;20214;-83
2021/03/31 04:20:19;;;;;;;9.25;4.80;;;13.40;84.90;;;;;;4978234;28;20646;-83
2021/03/31 04:22:47;;;;;;;11.50;6.10;;;13.40;84.90;;;;;;4977759;28;20191;-83
2021/03/31 04:25:15;;;;;;;9.00;4.75;;;13.40;85.30;;;;;;4977090;28;20218;-83
2021/03/31 04:27:43;;;;;;;5.72;3.55;;;13.40;85.20;;;;;;4976997;28;20202;-83
2021/03/31 04:30:12;;;;;;;7.57;4.50;;;13.40;85.40;;;;;;4977061;28;20639;-83
2021/03/31 04:32:40;;;;;;;6.43;4.30;;;13.40;85.10;;;;;;4977298;28;20225;-83
2021/03/31 04:35:08;;;;;;;9.63;4.90;;;13.40;85.20;;;;;;4977273;28;20196;-83
2021/03/31 04:37:35;;;;;;;7.30;4.50;;;13.50;85.40;;;;;;4974097;28;20274;-83
2021/03/31 04:40:03;;;;;;;6.68;3.83;;;13.40;86.00;;;;;;4957522;28;20242;-84
2021/03/31 04:42:30;;;;;;;7.85;3.70;;;13.30;85.20;;;;;;4958040;28;20196;-83
2021/03/31 04:44:57;;;;;;;6.30;4.50;;;13.30;85.70;;;;;;4957723;28;20295;-83
2021/03/31 04:47:23;;;;;;;8.23;5.13;;;13.20;85.60;;;;;;4971241;28;20246;-83
2021/03/31 04:49:49;;;;;;;7.70;5.05;;;13.10;85.70;;;;;;4977184;28;20257;-83
2021/03/31 04:52:15;;;;;;;7.95;5.03;;;13.10;85.80;;;;;;4965071;28;20211;-83
2021/03/31 04:54:42;;;;;;;7.80;4.45;;;13.00;85.80;;;;;;4986973;28;20171;-83
2021/03/31 04:57:08;;;;;;;7.90;4.70;;;13.00;86.10;;;;;;4989396;28;20250;-83
2021/03/31 04:59:35;;;;;;;7.75;5.35;;;12.90;85.90;;;;;;4988273;28;20194;-83
2021/03/31 05:02:02;;;;;;;8.85;4.40;;;13.00;86.20;;;;;;4976988;28;20237;-83
2021/03/31 05:04:28;;;;;;;7.25;4.63;;;13.00;86.00;;;;;;4975213;28;20198;-83
2021/03/31 05:06:54;;;;;;;8.15;4.05;;;12.90;86.40;;;;;;4975750;28;20187;-83
2021/03/31 05:09:20;;;;;;;7.82;5.25;;;12.90;86.20;;;;;;4957857;28;20640;-83
2021/03/31 05:11:47;;;;;;;8.00;4.30;;;12.90;86.40;;;;;;4957959;28;20188;-82
2021/03/31 05:14:13;;;;;;;10.82;5.35;;;12.90;86.40;;;;;;4972288;28;20187;-81
2021/03/31 05:16:40;;;;;;;11.30;5.20;;;12.80;86.90;;;;;;4964324;28;20225;-81
2021/03/31 05:19:06;;;;;;;8.07;4.85;;;12.90;87.00;;;;;;4970275;28;20251;-83
2021/03/31 05:21:32;;;;;;;6.20;4.40;;;12.90;86.80;;;;;;4976383;28;20261;-84
2021/03/31 05:23:59;;;;;;;6.80;4.85;;;12.80;86.80;;;;;;4975466;28;20190;-84
2021/03/31 05:26:25;;;;;;;7.43;4.60;;;12.80;87.30;;;;;;4977104;28;20651;-84
2021/03/31 05:28:51;;;;;;;10.25;5.28;;;12.80;87.30;;;;;;4974671;28;20709;-84
2021/03/31 05:31:18;;;;;;;8.75;4.78;;;12.80;87.60;;;;;;4975287;28;20198;-84
2021/03/31 05:33:45;;;;;;;7.07;4.80;;;12.80;88.00;;;;;;4976818;28;20234;-83
2021/03/31 05:36:11;;;;;;;7.45;5.28;;;12.80;87.70;;;;;;4970602;28;20211;-84
2021/03/31 05:38:38;;;;;;;10.68;4.50;;;12.90;88.00;;;;;;4964502;28;20199;-83
2021/03/31 05:41:04;;;;;;;9.48;4.90;;;12.90;88.20;;;;;;4963075;28;20191;-84
2021/03/31 05:43:31;;;;;;;9.90;5.00;;;12.90;88.00;;;;;;4969793;28;20217;-84
2021/03/31 05:45:58;;;;;;;7.55;4.50;;;12.90;88.20;;;;;;4976222;28;20182;-83
2021/03/31 05:48:25;;;;;;;9.52;5.28;;;13.00;88.20;;;;;;4976345;28;20233;-82
2021/03/31 05:50:52;;;;;;;6.97;5.25;;;13.00;88.60;;;;;;4977712;28;20191;-83
2021/03/31 05:53:18;;;;;;;9.02;5.20;;;13.10;87.80;;;;;;4973297;28;20183;-82
2021/03/31 05:55:44;;;;;;;9.77;4.70;;;13.20;87.90;;;;;;4957368;28;20226;-83
2021/03/31 05:58:11;;;;;;;10.80;5.40;;;13.20;88.40;;;;;;4976260;28;20203;-82
2021/03/31 06:00:38;;;;;;;5.93;4.07;;;13.20;88.00;;;;;;4975747;28;20194;-82
2021/03/31 06:03:06;;;;;;;10.00;5.40;;;13.20;88.20;;;;;;4975402;28;20183;-81
2021/03/31 06:05:33;;;;;;;8.18;5.43;;;13.20;88.20;;;;;;4974939;28;20190;-82
2021/03/31 06:08:00;;;;;;;11.65;4.97;;;13.30;88.60;;;;;;4972609;28;20198;-80
2021/03/31 06:10:28;;;;;;;7.22;4.65;;;13.30;88.60;;;;;;4971277;28;20636;-81
2021/03/31 06:12:57;;;;;;;8.52;4.68;;;13.40;88.70;;;;;;4974595;28;20191;-81
2021/03/31 06:15:30;;;;;;;9.07;5.05;;;13.40;88.80;;;;;;4974898;28;20194;-81
2021/03/31 06:17:59;;;;;;;11.43;5.85;;;13.60;89.00;;;;;;4969890;28;20193;-81
2021/03/31 06:20:40;;;;;;;13.57;5.18;;;13.60;88.90;;;;;;4973596;28;20713;-81
2021/03/31 06:23:26;;;;;;;6.88;5.32;;;13.70;89.30;;;;;;4974055;28;20187;-81
2021/03/31 06:25:57;;;;;;;8.00;5.35;;;13.70;89.50;;;;;;4974730;28;20193;-83
2021/03/31 06:28:28;;;;;;;7.30;5.32;;;13.70;89.90;;;;;;4965056;28;20201;-81
2021/03/31 06:31:06;;;;;;;9.40;4.82;;;13.90;89.60;;;;;;4955550;29;20532;-81
2021/03/31 06:33:32;;;;;;;10.68;5.45;;;14.00;89.50;;;;;;4955453;28;20200;-81
2021/03/31 06:35:58;;;;;;;5.97;4.57;;;14.10;89.60;;;;;;4955383;28;20760;-81
2021/03/31 06:38:30;;;;;;;9.30;6.50;;;14.20;90.40;;;;;;4974198;28;20183;-82
2021/03/31 06:40:59;;;;;;;10.98;6.75;;;14.30;90.20;;;;;;4970299;28;20300;-81
2021/03/31 06:43:27;;;;;;;7.32;5.40;;;14.30;89.90;;;;;;4955284;29;20199;-81
2021/03/31 06:45:57;;;;;;;11.68;6.03;;;14.30;89.90;;;;;;4966360;28;20412;-81
2021/03/31 06:48:26;;;;;;;8.70;5.45;;;14.40;90.00;;;;;;4960989;28;20661;-81
2021/03/31 06:50:53;;;;;;;8.13;5.63;;;14.40;89.80;;;;;;4967725;28;20193;-82
2021/03/31 06:53:27;;;;;;;10.50;5.90;;;14.60;89.60;;;;;;4972256;28;20200;-81
2021/03/31 06:56:01;;;;;;;10.30;5.50;;;14.70;90.00;;;;;;4965971;28;20224;-81
2021/03/31 06:58:29;;;;;;;9.60;6.43;;;14.80;90.10;;;;;;4974250;28;20676;-80
2021/03/31 07:00:55;;;;;;;8.63;5.10;;;14.90;90.20;;;;;;4974048;28;20189;-84
2021/03/31 07:03:23;;;;;;;9.05;6.22;;;14.90;90.20;;;;;;4956799;28;20191;-82
2021/03/31 07:05:50;;;;;;;13.25;7.25;;;15.00;90.00;;;;;;4966150;28;20589;-82
2021/03/31 07:08:17;;;;;;;13.90;6.13;;;15.10;90.10;;;;;;4975842;28;20672;-82
2021/03/31 07:10:46;;;;;;;10.07;6.15;;;15.10;90.10;;;;;;4973451;28;20550;-83
2021/03/31 07:13:26;;;;;;;8.65;6.13;;;15.30;90.20;;;;;;4974585;28;20197;-82
2021/03/31 07:15:56;;;;;;;12.50;5.93;;;15.40;90.20;;;;;;4967655;28;20218;-83
2021/03/31 07:18:23;;;;;;;9.10;5.90;;;15.60;90.00;;;;;;4967189;28;20225;-83
2021/03/31 07:20:50;;;;;;;7.88;5.85;;;15.80;90.10;;;;;;4984571;28;20245;-83
2021/03/31 07:23:16;;;;;;;9.85;6.03;;;15.80;89.80;;;;;;4974934;28;20213;-84
2021/03/31 07:25:43;;;;;;;11.50;7.65;;;16.00;89.70;;;;;;4973311;28;20194;-83
2021/03/31 07:28:16;;;;;;;9.88;6.82;;;16.10;89.80;;;;;;4973884;28;20741;-84
2021/03/31 07:30:43;;;;;;;11.70;8.38;;;16.30;89.20;;;;;;4972421;28;20194;-85
2021/03/31 07:33:15;;;;;;;10.13;7.68;;;16.40;89.70;;;;;;4971040;28;20198;-84
2021/03/31 07:35:42;;;;;;;13.75;8.23;;;16.50;89.30;;;;;;4953878;28;20954;-84
2021/03/31 07:38:13;;;;;;;10.57;7.22;;;16.60;89.30;;;;;;4954925;28;20456;-83
2021/03/31 07:40:41;;;;;;;10.80;6.95;;;16.70;89.30;;;;;;4976770;28;20187;-83
2021/03/31 07:43:11;;;;;;;9.80;6.55;;;16.90;88.50;;;;;;4977431;28;20630;-83
2021/03/31 07:45:41;;;;;;;9.02;7.00;;;17.00;88.70;;;;;;4958568;28;20282;-82
2021/03/31 07:48:09;;;;;;;13.55;7.60;;;17.00;88.80;;;;;;4959230;28;20549;-83
2021/03/31 07:50:35;;;;;;;11.05;6.80;;;17.10;88.90;;;;;;4976578;28;20199;-82
2021/03/31 07:53:03;;;;;;;13.40;7.60;;;17.20;88.60;;;;;;4977656;28;20233;-83
2021/03/31 07:55:35;;;;;;;9.50;6.82;;;17.30;88.90;;;;;;4976961;28;20285;-83
2021/03/31 07:58:25;;;;;;;9.75;6.10;;;17.40;87.60;;;;;;4977089;28;20274;-83
2021/03/31 08:01:14;;;;;;;12.23;6.95;;;17.60;88.30;;;;;;4977210;28;20191;-83
2021/03/31 08:03:42;;;;;;;12.43;6.20;;;17.70;87.60;;;;;;4974785;28;20329;-83
2021/03/31 08:06:14;;;;;;;11.20;6.05;;;17.80;87.60;;;;;;4964177;28;20188;-83
2021/03/31 08:09:04;;;;;;;10.38;6.65;;;18.00;86.50;;;;;;4974071;28;20197;-81
2021/03/31 08:12:03;;;;;;;9.05;6.43;;;18.10;87.80;;;;;;4968628;28;20257;-83
2021/03/31 08:14:50;;;;;;;10.85;5.95;;;18.20;88.30;;;;;;4974626;28;20195;-83
2021/03/31 08:17:17;;;;;;;11.07;6.78;;;18.40;87.50;;;;;;4971336;28;20227;-84
2021/03/31 08:19:49;;;;;;;8.40;6.28;;;18.50;85.80;;;;;;4976259;28;20320;-84
2021/03/31 08:22:38;;;;;;;10.50;5.90;;;18.60;87.20;;;;;;4976776;28;20206;-83
2021/03/31 08:25:25;;;;;;;9.02;6.32;;;18.70;87.10;;;;;;4975923;28;20191;-84
2021/03/31 08:28:10;;;;;;;7.68;5.78;;;18.80;86.10;;;;;;4976930;28;20222;-84
2021/03/31 08:30:39;;;;;;;10.60;6.60;;;18.90;85.50;;;;;;4976835;28;20198;-84
2021/03/31 08:33:06;;;;;;;11.23;6.00;;;18.90;86.20;;;;;;4976755;28;20186;-83
2021/03/31 08:35:34;;;;;;;11.40;6.93;;;19.00;85.70;;;;;;4976548;28;20198;-84
2021/03/31 08:38:01;;;;;;;10.65;6.43;;;19.20;85.00;;;;;;4977449;28;20194;-82
2021/03/31 08:40:31;;;;;;;8.90;6.40;;;19.20;85.30;;;;;;4976909;28;20190;-83
2021/03/31 08:43:00;;;;;;;10.15;6.28;;;19.30;85.70;;;;;;4976830;28;20236;-84
2021/03/31 08:45:33;;;;;;;9.68;5.88;;;19.40;84.70;;;;;;4976633;28;20199;-83
2021/03/31 08:48:00;;;;;;;10.45;6.60;;;19.50;84.60;;;;;;4976425;28;20210;-82
2021/03/31 08:50:36;;;;;;;9.82;5.47;;;19.60;84.00;;;;;;4976164;28;20183;-83
2021/03/31 08:53:05;;;;;;;8.63;6.05;;;19.70;85.40;;;;;;4985173;28;20258;-83
2021/03/31 08:55:34;;;;;;;9.40;6.07;;;19.80;85.40;;;;;;4986641;28;20222;-83
2021/03/31 08:58:04;;;;;;;11.38;6.00;;;20.00;84.10;;;;;;4985847;28;20197;-83
2021/03/31 09:00:31;;;;;;;7.57;5.47;;;20.00;83.00;;;;;;4977025;28;20202;-83
2021/03/31 09:03:04;;;;;;;9.63;5.95;;;20.20;82.30;;;;;;4976096;28;20191;-83
2021/03/31 09:05:31;;;;;;;9.48;6.13;;;20.20;83.60;;;;;;4976192;28;20198;-83
2021/03/31 09:07:59;;;;;;;10.18;6.63;;;20.40;84.20;;;;;;4975999;28;20187;-84
2021/03/31 09:10:27;;;;;;;5.93;5.15;;;20.40;85.80;;;;;;4976085;28;20554;-83
2021/03/31 09:12:53;;;;;;;11.88;4.63;;;20.50;82.70;;;;;;4976013;28;20190;-83
2021/03/31 09:15:19;;;;;;;9.55;5.22;;;20.70;82.00;;;;;;4975802;28;20674;-83
2021/03/31 09:17:47;;;;;;;9.13;6.20;;;20.80;83.90;;;;;;4975869;28;20217;-83
2021/03/31 09:20:18;;;;;;;10.20;4.60;;;20.90;82.20;;;;;;4975911;28;20200;-83
2021/03/31 09:22:46;;;;;;;9.50;4.97;;;21.00;80.20;;;;;;4975836;28;20257;-83
2021/03/31 09:25:14;;;;;;;7.97;4.20;;;21.10;79.50;;;;;;4976331;28;20594;-83
2021/03/31 09:27:41;;;;;;;8.50;5.45;;;21.20;79.80;;;;;;4975641;28;20198;-83
2021/03/31 09:30:12;;;;;;;6.38;4.40;;;21.20;75.80;;;;;;4975720;28;20651;-83
2021/03/31 09:32:43;;;;;;;8.80;4.20;;;21.30;74.30;;;;;;4975766;28;20603;-83
2021/03/31 09:35:10;;;;;;;7.47;4.25;;;21.40;74.00;;;;;;4975798;28;20202;-83
2021/03/31 09:37:40;;;;;;;7.03;3.90;;;21.40;72.80;;;;;;4975347;28;20223;-83
2021/03/31 09:40:10;;;;;;;7.97;4.20;;;21.50;72.70;;;;;;4975352;28;20638;-83
2021/03/31 09:42:39;;;;;;;7.30;4.60;;;21.50;71.00;;;;;;4975614;28;20193;-83
2021/03/31 09:45:09;;;;;;;5.03;3.35;;;21.60;70.30;;;;;;4975555;28;20191;-83
2021/03/31 09:47:37;;;;;;;7.97;4.03;;;21.60;69.80;;;;;;4975523;28;20186;-83
2021/03/31 09:50:07;;;;;;;8.23;4.30;;;21.70;69.80;;;;;;4975302;28;20260;-83
2021/03/31 09:52:34;;;;;;;5.28;4.35;;;21.70;70.00;;;;;;4975240;28;20274;-83
2021/03/31 09:55:03;;;;;;;8.60;4.30;;;21.80;68.70;;;;;;4975177;28;20650;-83
2021/03/31 09:57:33;;;;;;;6.55;4.45;;;21.90;68.80;;;;;;4974949;28;20238;-83
2021/03/31 10:00:02;;;;;;;7.45;4.32;;;22.00;69.00;;;;;;4975287;28;20187;-83
2021/03/31 10:02:28;;;;;;;6.28;4.00;;;22.10;70.30;;;;;;4974652;28;20186;-82
2021/03/31 10:05:00;;;;;;;8.43;4.30;;;22.10;67.90;;;;;;4975269;28;20191;-82
2021/03/31 10:07:26;;;;;;;8.30;4.85;;;22.10;67.80;;;;;;4966737;28;20551;-83
2021/03/31 10:09:52;;;;;;;6.10;3.92;;;22.20;67.90;;;;;;4959890;28;20183;-83
2021/03/31 10:12:21;;;;;;;6.80;4.00;;;22.20;66.70;;;;;;4955775;29;20232;-83
2021/03/31 10:14:52;;;;;;;8.68;4.47;;;22.30;66.50;;;;;;4960333;28;20187;-86
2021/03/31 10:17:20;;;;;;;7.10;4.45;;;22.30;70.30;;;;;;4964907;28;20682;-86
2021/03/31 10:19:46;;;;;;;5.50;4.10;;;22.40;65.40;;;;;;4964127;28;20644;-86
2021/03/31 10:22:14;;;;;;;6.55;4.50;;;22.50;65.90;;;;;;4965178;28;20639;-85
2021/03/31 10:24:42;;;;;;;8.38;4.10;;;22.50;66.90;;;;;;4962043;28;20187;-86
2021/03/31 10:27:10;;;;;;;7.15;3.67;;;22.60;67.40;;;;;;4957404;28;20648;-86
2021/03/31 10:29:44;;;;;;;5.55;4.40;;;22.70;70.00;;;;;;4968213;28;20524;-85
2021/03/31 10:32:13;;;;;;;7.60;4.60;;;22.90;66.90;;;;;;4968760;28;20241;-85
2021/03/31 10:34:41;;;;;;;9.32;4.63;;;22.90;65.20;;;;;;4942223;28;20199;-86
2021/03/31 10:37:12;;;;;;;6.25;3.90;;;22.90;64.70;;;;;;4978986;28;20214;-86
2021/03/31 10:48:34;;;;;;;8.25;3.95;;;23.30;65.50;;;;;;4973691;28;20186;-83
2021/03/31 10:51:07;;;;;;;7.28;4.40;;;23.30;65.00;;;;;;4974717;28;20190;-83
2021/03/31 10:53:36;;;;;;;11.15;4.35;;;23.20;63.80;;;;;;4970883;28;20567;-83
2021/03/31 10:56:03;;;;;;;7.10;5.00;;;23.20;64.10;;;;;;4968821;28;20222;-83
2021/03/31 10:58:30;;;;;;;7.68;5.03;;;23.40;65.40;;;;;;4974947;28;20222;-84
2021/03/31 11:00:56;;;;;;;9.32;4.90;;;23.40;63.60;;;;;;4963937;28;20184;-83
2021/03/31 11:03:24;;;;;;;7.78;3.97;;;23.40;63.30;;;;;;4974570;28;20184;-83
2021/03/31 11:05:51;;;;;;;6.20;4.57;;;23.50;64.30;;;;;;4983083;28;20214;-84
2021/03/31 11:08:17;;;;;;;9.88;4.78;;;23.50;64.20;;;;;;4974460;28;20192;-84
2021/03/31 11:10:44;;;;;;;7.25;4.30;;;23.60;62.70;;;;;;4972755;28;20183;-81
2021/03/31 11:13:10;;;;;;;5.93;4.30;;;23.60;63.20;;;;;;4974471;28;20183;-84
2021/03/31 11:15:38;;;;;;;6.90;4.50;;;23.70;62.10;;;;;;4960667;29;20191;-84
2021/03/31 11:18:10;;;;;;;7.60;4.95;;;23.80;63.10;;;;;;4972420;28;20206;-84
2021/03/31 11:26:09;;;;;;;7.43;4.80;;;24.10;61.40;;;;;;4985110;28;20691;-83
2021/03/31 11:28:37;;;;;;;6.93;4.45;;;24.00;60.90;;;;;;4983438;28;20189;-83
2021/03/31 11:31:04;;;;;;;8.50;4.45;;;24.00;62.80;;;;;;4985452;28;20239;-83
2021/03/31 11:33:30;;;;;;;6.80;4.80;;;24.00;61.60;;;;;;4983524;28;20643;-84
2021/03/31 11:35:57;;;;;;;9.25;5.18;;;24.10;61.40;;;;;;4982279;28;20191;-83
2021/03/31 11:38:24;;;;;;;8.98;4.10;;;24.10;63.40;;;;;;4977790;28;20184;-83
2021/03/31 11:40:51;;;;;;;7.90;4.82;;;24.40;62.40;;;;;;4967866;28;20247;-84
2021/03/31 11:43:17;;;;;;;8.10;4.35;;;24.90;63.90;;;;;;4976325;28;20189;-83
2021/03/31 11:45:45;;;;;;;8.27;5.20;;;25.50;62.00;;;;;;4975739;28;20187;-83
2021/03/31 11:48:11;;;;;;;10.07;5.00;;;26.00;61.40;;;;;;4975444;28;20813;-84
2021/03/31 11:50:38;;;;;;;8.90;4.70;;;26.60;59.80;;;;;;4973151;28;20448;-84
2021/03/31 11:53:05;;;;;;;5.50;4.03;;;27.10;58.60;;;;;;4976158;28;20713;-84
2021/03/31 11:55:32;;;;;;;7.57;4.90;;;27.70;59.90;;;;;;4958872;28;20890;-84
2021/03/31 11:57:58;;;;;;;8.63;5.30;;;28.40;58.70;;;;;;4964108;28;20513;-84
2021/03/31 12:00:25;;;;;;;10.53;4.87;;;28.70;56.40;;;;;;4959061;28;20533;-84
2021/03/31 12:02:51;;;;;;;4.93;4.10;;;29.00;55.40;;;;;;4977644;28;21020;-84
2021/03/31 12:05:18;;;;;;;10.17;4.67;;;29.50;54.50;;;;;;4976980;28;20468;-84
2021/03/31 12:07:45;;;;;;;6.83;4.37;;;29.80;53.90;;;;;;4973675;28;20442;-84
2021/03/31 12:10:13;;;;;;;7.40;4.77;;;30.10;54.50;;;;;;4978433;28;20506;-84
2021/03/31 12:12:41;;;;;;;7.23;4.37;;;30.80;52.90;;;;;;4976085;28;20541;-84
2021/03/31 12:15:10;;;;;;;4.93;3.53;;;31.30;51.10;;;;;;4973222;28;20496;-84
2021/03/31 12:17:38;;;;;;;6.53;5.00;;;31.20;49.90;;;;;;4977348;28;20485;-84
2021/03/31 12:20:06;;;;;;;7.40;3.80;;;30.90;48.20;;;;;;4974422;28;20516;-84
2021/03/31 12:22:32;;;;;;;10.53;5.33;;;30.50;47.50;;;;;;4976893;28;20442;-83
2021/03/31 12:24:58;;;;;;;8.87;4.30;;;30.70;46.90;;;;;;4976308;28;20434;-83
2021/03/31 12:27:25;;;;;;;6.60;4.30;;;30.30;45.30;;;;;;4977239;28;20489;-84
2021/03/31 12:29:51;;;;;;;6.60;4.07;;;30.40;45.20;;;;;;4977198;28;20981;-84
2021/03/31 12:32:18;;;;;;;7.33;3.97;;;30.80;44.00;;;;;;4977840;28;20449;-83
2021/03/31 12:34:45;;;;;;;5.00;3.50;;;31.20;44.80;;;;;;4970218;28;20826;-83
2021/03/31 12:37:11;;;;;;;4.80;2.97;;;31.60;41.70;;;;;;4978338;28;20968;-83
2021/03/31 12:39:38;;;;;;;6.37;3.70;;;31.20;40.20;;;;;;4980374;28;20451;-82
2021/03/31 12:42:05;;;;;;;5.37;2.90;;;31.60;41.10;;;;;;4975850;28;20452;-83
2021/03/31 12:44:32;;;;;;;5.60;3.90;;;31.60;40.60;;;;;;4974566;28;20953;-83
2021/03/31 12:46:58;;;;;;;6.90;3.93;;;31.60;40.10;;;;;;4974136;28;20518;-83
2021/03/31 12:49:25;;;;;;;9.87;4.07;;;31.80;40.30;;;;;;4976332;28;20837;-83
2021/03/31 12:51:54;;;;;;;5.30;3.37;;;31.80;40.30;;;;;;4976159;28;20442;-83
2021/03/31 12:54:22;;;;;;;4.57;2.90;;;32.50;38.90;;;;;;4975017;28;20447;-83
2021/03/31 12:56:48;;;;;;;6.23;3.00;;;32.30;39.10;;;;;;4962449;28;20981;-85
2021/03/31 12:59:15;;;;;;;5.80;3.03;;;31.60;37.20;;;;;;4975950;28;20443;-85
2021/03/31 13:01:42;;;;;;;5.33;3.27;;;31.50;37.50;;;;;;4976218;28;20465;-85
2021/03/31 13:04:09;;;;;;;6.20;3.97;;;31.80;35.70;;;;;;4975263;28;20443;-85
2021/03/31 13:06:37;;;;;;;9.63;2.43;;;32.10;35.80;;;;;;4976282;28;20869;-85
2021/03/31 13:09:04;;;;;;;5.07;3.03;;;32.10;35.30;;;;;;4956922;28;20446;-85